sensor_id;sensor_type;location;lat;lon;timestamp;pressure;altitude;pressure_sealevel;temperature;humidity
29941;BME280;16801;53.562;10.038;2022-10-03T00:00:08;102001.44;;;12.71;86.49
29941;BME280;16801;53.562;10.038;2022-10-03T00:03:33;102000.84;;;12.68;86.35
29941;BME280;16801;53.562;10.038;2022-10-03T00:07:04;102003.03;;;12.63;86.65
29941;BME280;16801;53.562;10.038;2022-10-03T00:10:35;102008.81;;;12.47;87.40
29941;BME280;16801;53.562;10.038;2022-10-03T00:14:03;102014.47;;;12.55;86.85
29941;BME280;16801;53.562;10.038;2022-10-03T00:17:38;102011.28;;;12.61;86.27
29941;BME280;16801;53.562;10.038;2022-10-03T00:21:13;102009.53;;;12.60;86.72
29941;BME280;16801;53.562;10.038;2022-10-03T00:24:49;102012.50;;;12.57;86.64
29941;BME280;16801;53.562;10.038;2022-10-03T00:28:24;102014.38;;;12.68;86.85
29941;BME280;16801;53.562;10.038;2022-10-03T00:31:57;102010.53;;;12.70;86.40
29941;BME280;16801;53.562;10.038;2022-10-03T00:35:37;102017.81;;;12.70;86.28
29941;BME280;16801;53.562;10.038;2022-10-03T00:39:34;102016.81;;;12.71;85.79
29941;BME280;16801;53.562;10.038;2022-10-03T00:43:15;102016.06;;;12.69;86.00
29941;BME280;16801;53.562;10.038;2022-10-03T00:46:59;102023.09;;;12.71;85.98
29941;BME280;16801;53.562;10.038;2022-10-03T00:50:37;102024.69;;;12.74;85.60
29941;BME280;16801;53.562;10.038;2022-10-03T00:54:10;102026.53;;;12.84;86.01
29941;BME280;16801;53.562;10.038;2022-10-03T00:58:01;102024.81;;;12.83;86.04
29941;BME280;16801;53.562;10.038;2022-10-03T01:01:31;102022.97;;;12.95;85.76
29941;BME280;16801;53.562;10.038;2022-10-03T01:05:00;102023.94;;;12.94;85.10
29941;BME280;16801;53.562;10.038;2022-10-03T01:08:36;102033.53;;;12.98;85.09
29941;BME280;16801;53.562;10.038;2022-10-03T01:12:25;102029.75;;;13.01;84.95
29941;BME280;16801;53.562;10.038;2022-10-03T01:16:00;102033.81;;;12.95;84.94
29941;BME280;16801;53.562;10.038;2022-10-03T01:23:44;102050.53;;;13.00;85.30
29941;BME280;16801;53.562;10.038;2022-10-03T01:27:12;102043.16;;;12.91;85.80
29941;BME280;16801;53.562;10.038;2022-10-03T01:30:39;102046.97;;;12.89;86.80
29941;BME280;16801;53.562;10.038;2022-10-03T01:34:06;102044.75;;;12.94;86.64
29941;BME280;16801;53.562;10.038;2022-10-03T01:37:37;102044.88;;;12.92;85.85
29941;BME280;16801;53.562;10.038;2022-10-03T01:41:05;102058.75;;;12.88;85.81
29941;BME280;16801;53.562;10.038;2022-10-03T01:44:35;102058.16;;;12.84;85.62
29941;BME280;16801;53.562;10.038;2022-10-03T01:48:04;102063.06;;;12.68;86.81
29941;BME280;16801;53.562;10.038;2022-10-03T01:51:32;102063.56;;;12.62;86.52
29941;BME280;16801;53.562;10.038;2022-10-03T01:54:58;102065.59;;;12.58;86.74
29941;BME280;16801;53.562;10.038;2022-10-03T01:58:28;102074.06;;;12.54;86.58
29941;BME280;16801;53.562;10.038;2022-10-03T02:01:59;102079.97;;;12.48;86.26
29941;BME280;16801;53.562;10.038;2022-10-03T02:05:33;102070.72;;;12.39;86.65
29941;BME280;16801;53.562;10.038;2022-10-03T02:09:02;102081.91;;;12.35;87.15
29941;BME280;16801;53.562;10.038;2022-10-03T02:12:29;102087.41;;;12.33;86.45
29941;BME280;16801;53.562;10.038;2022-10-03T02:15:56;102091.81;;;12.23;86.77
29941;BME280;16801;53.562;10.038;2022-10-03T02:19:25;102090.13;;;12.33;86.93
29941;BME280;16801;53.562;10.038;2022-10-03T02:22:51;102092.25;;;12.41;86.62
29941;BME280;16801;53.562;10.038;2022-10-03T02:26:34;102089.66;;;12.39;86.01
29941;BME280;16801;53.562;10.038;2022-10-03T02:30:12;102097.16;;;12.36;86.68
29941;BME280;16801;53.562;10.038;2022-10-03T02:34:01;102104.19;;;12.15;87.11
29941;BME280;16801;53.562;10.038;2022-10-03T02:37:35;102101.81;;;12.10;87.22
29941;BME280;16801;53.562;10.038;2022-10-03T02:41:28;102109.72;;;12.13;87.05
29941;BME280;16801;53.562;10.038;2022-10-03T02:53:10;102124.16;;;12.01;87.61
29941;BME280;16801;53.562;10.038;2022-10-03T03:00:53;102125.88;;;12.02;87.49
29941;BME280;16801;53.562;10.038;2022-10-03T03:04:42;102127.19;;;11.96;87.06
29941;BME280;16801;53.562;10.038;2022-10-03T03:08:27;102131.84;;;11.94;88.12
29941;BME280;16801;53.562;10.038;2022-10-03T03:20:32;102139.84;;;11.96;86.97
29941;BME280;16801;53.562;10.038;2022-10-03T03:24:08;102135.03;;;11.88;87.05
29941;BME280;16801;53.562;10.038;2022-10-03T03:27:41;102135.13;;;11.87;87.66
29941;BME280;16801;53.562;10.038;2022-10-03T03:31:09;102135.91;;;11.89;87.13
29941;BME280;16801;53.562;10.038;2022-10-03T03:34:38;102145.59;;;11.91;87.23
29941;BME280;16801;53.562;10.038;2022-10-03T03:38:12;102150.81;;;11.82;87.36
29941;BME280;16801;53.562;10.038;2022-10-03T03:41:55;102151.28;;;11.76;87.91
29941;BME280;16801;53.562;10.038;2022-10-03T03:45:37;102148.53;;;11.88;87.21
29941;BME280;16801;53.562;10.038;2022-10-03T03:49:23;102152.19;;;11.87;87.60
29941;BME280;16801;53.562;10.038;2022-10-03T03:53:00;102149.50;;;11.87;88.11
29941;BME280;16801;53.562;10.038;2022-10-03T03:56:39;102150.69;;;11.83;87.18
29941;BME280;16801;53.562;10.038;2022-10-03T04:00:12;102148.03;;;11.71;87.62
29941;BME280;16801;53.562;10.038;2022-10-03T04:03:44;102150.53;;;11.74;88.55
29941;BME280;16801;53.562;10.038;2022-10-03T04:07:17;102152.97;;;11.77;88.17
29941;BME280;16801;53.562;10.038;2022-10-03T04:10:49;102151.06;;;11.66;88.33
29941;BME280;16801;53.562;10.038;2022-10-03T04:14:28;102157.00;;;11.59;88.71
29941;BME280;16801;53.562;10.038;2022-10-03T04:18:03;102162.53;;;11.70;88.35
29941;BME280;16801;53.562;10.038;2022-10-03T04:22:13;102163.03;;;11.62;89.06
29941;BME280;16801;53.562;10.038;2022-10-03T04:25:45;102170.84;;;11.67;87.94
29941;BME280;16801;53.562;10.038;2022-10-03T04:29:38;102168.88;;;11.56;89.09
29941;BME280;16801;53.562;10.038;2022-10-03T04:33:11;102170.38;;;11.60;88.63
29941;BME280;16801;53.562;10.038;2022-10-03T04:37:04;102166.59;;;11.63;88.52
29941;BME280;16801;53.562;10.038;2022-10-03T04:40:40;102176.13;;;11.56;89.32
29941;BME280;16801;53.562;10.038;2022-10-03T04:44:14;102180.56;;;11.57;89.37
29941;BME280;16801;53.562;10.038;2022-10-03T04:47:43;102183.81;;;11.62;89.21
29941;BME280;16801;53.562;10.038;2022-10-03T04:51:14;102184.00;;;11.59;89.68
29941;BME280;16801;53.562;10.038;2022-10-03T04:54:45;102191.56;;;11.54;88.73
29941;BME280;16801;53.562;10.038;2022-10-03T04:58:18;102186.72;;;11.59;89.61
29941;BME280;16801;53.562;10.038;2022-10-03T05:01:49;102188.56;;;11.46;89.23
29941;BME280;16801;53.562;10.038;2022-10-03T05:05:38;102192.56;;;11.53;89.82
29941;BME280;16801;53.562;10.038;2022-10-03T05:09:17;102187.38;;;11.50;90.47
29941;BME280;16801;53.562;10.038;2022-10-03T05:12:49;102190.31;;;11.47;90.65
29941;BME280;16801;53.562;10.038;2022-10-03T05:16:18;102204.69;;;11.47;90.99
29941;BME280;16801;53.562;10.038;2022-10-03T05:19:52;102205.84;;;11.43;90.26
29941;BME280;16801;53.562;10.038;2022-10-03T05:23:26;102203.69;;;11.48;90.68
29941;BME280;16801;53.562;10.038;2022-10-03T05:26:53;102196.88;;;11.55;90.47
29941;BME280;16801;53.562;10.038;2022-10-03T05:30:35;102209.84;;;11.50;90.24
29941;BME280;16801;53.562;10.038;2022-10-03T05:34:03;102211.13;;;11.57;90.10
29941;BME280;16801;53.562;10.038;2022-10-03T05:37:45;102208.53;;;11.56;90.06
29941;BME280;16801;53.562;10.038;2022-10-03T05:41:16;102213.16;;;11.54;90.63
29941;BME280;16801;53.562;10.038;2022-10-03T05:44:43;102219.88;;;11.61;90.28
29941;BME280;16801;53.562;10.038;2022-10-03T05:48:12;102221.81;;;11.59;89.60
29941;BME280;16801;53.562;10.038;2022-10-03T05:51:52;102223.44;;;11.61;90.25
29941;BME280;16801;53.562;10.038;2022-10-03T05:55:32;102229.41;;;11.66;90.45
29941;BME280;16801;53.562;10.038;2022-10-03T06:06:51;102226.34;;;11.83;88.85
29941;BME280;16801;53.562;10.038;2022-10-03T06:10:42;102235.09;;;11.87;88.71
29941;BME280;16801;53.562;10.038;2022-10-03T06:14:22;102233.81;;;11.92;88.25
29941;BME280;16801;53.562;10.038;2022-10-03T06:17:59;102240.47;;;11.99;88.68
29941;BME280;16801;53.562;10.038;2022-10-03T06:29:33;102239.59;;;12.35;87.83
29941;BME280;16801;53.562;10.038;2022-10-03T06:33:33;102234.31;;;12.34;87.12
29941;BME280;16801;53.562;10.038;2022-10-03T06:49:29;102261.19;;;12.71;86.24
29941;BME280;16801;53.562;10.038;2022-10-03T06:57:07;102269.84;;;12.53;86.80
29941;BME280;16801;53.562;10.038;2022-10-03T07:00:49;102274.72;;;12.48;86.57
29941;BME280;16801;53.562;10.038;2022-10-03T07:08:31;102273.63;;;12.74;85.94
29941;BME280;16801;53.562;10.038;2022-10-03T07:16:14;102272.25;;;13.27;84.13
29941;BME280;16801;53.562;10.038;2022-10-03T07:23:50;102270.47;;;13.60;83.05
29941;BME280;16801;53.562;10.038;2022-10-03T07:27:22;102266.78;;;13.84;81.87
29941;BME280;16801;53.562;10.038;2022-10-03T07:30:59;102268.38;;;13.75;81.86
29941;BME280;16801;53.562;10.038;2022-10-03T07:42:35;102289.34;;;13.84;81.59
29941;BME280;16801;53.562;10.038;2022-10-03T07:46:33;102293.66;;;13.76;82.41
29941;BME280;16801;53.562;10.038;2022-10-03T07:50:34;102292.28;;;13.81;82.43
29941;BME280;16801;53.562;10.038;2022-10-03T07:54:39;102297.00;;;14.01;82.18
29941;BME280;16801;53.562;10.038;2022-10-03T07:58:27;102292.78;;;14.19;81.60
29941;BME280;16801;53.562;10.038;2022-10-03T08:02:03;102305.50;;;14.30;81.16
29941;BME280;16801;53.562;10.038;2022-10-03T08:05:45;102303.16;;;14.36;80.94
29941;BME280;16801;53.562;10.038;2022-10-03T08:09:35;102303.53;;;14.43;80.28
29941;BME280;16801;53.562;10.038;2022-10-03T08:13:22;102308.44;;;14.49;80.58
29941;BME280;16801;53.562;10.038;2022-10-03T08:20:51;102312.72;;;14.63;80.10
29941;BME280;16801;53.562;10.038;2022-10-03T08:24:23;102308.75;;;14.67;79.78
29941;BME280;16801;53.562;10.038;2022-10-03T08:28:03;102319.94;;;14.84;79.34
29941;BME280;16801;53.562;10.038;2022-10-03T08:31:47;102314.78;;;15.13;78.58
29941;BME280;16801;53.562;10.038;2022-10-03T08:35:27;102317.06;;;14.97;78.52
29941;BME280;16801;53.562;10.038;2022-10-03T08:39:10;102318.84;;;15.18;77.86
29941;BME280;16801;53.562;10.038;2022-10-03T08:50:30;102331.72;;;16.09;75.25
29941;BME280;16801;53.562;10.038;2022-10-03T08:54:04;102317.66;;;16.73;76.14
29941;BME280;16801;53.562;10.038;2022-10-03T09:01:27;102316.13;;;17.47;74.00
29941;BME280;16801;53.562;10.038;2022-10-03T09:05:18;102325.28;;;17.75;71.44
29941;BME280;16801;53.562;10.038;2022-10-03T09:08:58;102320.06;;;18.65;67.38
29941;BME280;16801;53.562;10.038;2022-10-03T09:12:51;102318.88;;;18.03;69.06
29941;BME280;16801;53.562;10.038;2022-10-03T09:16:43;102328.72;;;17.77;69.53
29941;BME280;16801;53.562;10.038;2022-10-03T09:20:23;102331.28;;;18.25;67.82
29941;BME280;16801;53.562;10.038;2022-10-03T09:24:10;102336.72;;;17.88;71.06
29941;BME280;16801;53.562;10.038;2022-10-03T09:27:44;102343.56;;;18.38;66.96
29941;BME280;16801;53.562;10.038;2022-10-03T09:31:24;102339.50;;;17.60;72.29
29941;BME280;16801;53.562;10.038;2022-10-03T09:35:14;102343.00;;;17.98;68.70
29941;BME280;16801;53.562;10.038;2022-10-03T09:39:01;102328.94;;;18.40;67.33
29941;BME280;16801;53.562;10.038;2022-10-03T09:42:53;102335.63;;;17.43;69.29
29941;BME280;16801;53.562;10.038;2022-10-03T09:46:34;102334.19;;;17.20;71.64
29941;BME280;16801;53.562;10.038;2022-10-03T09:54:23;102328.06;;;17.56;69.22
29941;BME280;16801;53.562;10.038;2022-10-03T09:58:07;102336.75;;;17.79;68.60
29941;BME280;16801;53.562;10.038;2022-10-03T10:01:39;102330.28;;;18.26;67.30
29941;BME280;16801;53.562;10.038;2022-10-03T10:05:30;102323.66;;;19.53;62.87
29941;BME280;16801;53.562;10.038;2022-10-03T10:09:26;102337.31;;;17.82;68.09
29941;BME280;16801;53.562;10.038;2022-10-03T10:13:16;102326.88;;;18.14;67.95
29941;BME280;16801;53.562;10.038;2022-10-03T10:16:58;102331.09;;;19.61;62.88
29941;BME280;16801;53.562;10.038;2022-10-03T10:20:40;102307.13;;;22.88;53.00
29941;BME280;16801;53.562;10.038;2022-10-03T10:24:43;102305.41;;;23.92;48.18
29941;BME280;16801;53.562;10.038;2022-10-03T10:28:49;102306.28;;;20.14;59.69
29941;BME280;16801;53.562;10.038;2022-10-03T10:32:52;102318.69;;;18.51;64.92
29941;BME280;16801;53.562;10.038;2022-10-03T10:36:51;102319.53;;;21.90;53.85
29941;BME280;16801;53.562;10.038;2022-10-03T10:41:09;102306.06;;;23.94;47.45
29941;BME280;16801;53.562;10.038;2022-10-03T10:45:13;102308.81;;;27.10;41.18
29941;BME280;16801;53.562;10.038;2022-10-03T10:49:05;102300.66;;;26.41;41.30
29941;BME280;16801;53.562;10.038;2022-10-03T10:53:52;102302.44;;;27.16;38.39
29941;BME280;16801;53.562;10.038;2022-10-03T11:00:51;102302.50;;;22.11;50.13
29941;BME280;16801;53.562;10.038;2022-10-03T11:04:51;102329.78;;;20.50;55.51
29941;BME280;16801;53.562;10.038;2022-10-03T11:08:52;102313.38;;;19.12;60.62
29941;BME280;16801;53.562;10.038;2022-10-03T11:25:09;102322.16;;;17.61;67.40
29941;BME280;16801;53.562;10.038;2022-10-03T11:29:09;102333.03;;;17.70;68.96
29941;BME280;16801;53.562;10.038;2022-10-03T11:37:18;102332.78;;;17.54;69.21
29941;BME280;16801;53.562;10.038;2022-10-03T11:40:55;102324.41;;;17.46;70.06
29941;BME280;16801;53.562;10.038;2022-10-03T11:44:21;102330.19;;;17.43;70.11
29941;BME280;16801;53.562;10.038;2022-10-03T11:47:51;102329.31;;;17.33;71.38
29941;BME280;16801;53.562;10.038;2022-10-03T11:51:16;102322.72;;;17.35;70.74
29941;BME280;16801;53.562;10.038;2022-10-03T11:54:44;102325.41;;;18.20;68.39
29941;BME280;16801;53.562;10.038;2022-10-03T12:02:06;102323.19;;;23.30;51.60
29941;BME280;16801;53.562;10.038;2022-10-03T12:05:43;102318.91;;;26.76;41.93
29941;BME280;16801;53.562;10.038;2022-10-03T12:09:15;102319.34;;;27.73;40.49
29941;BME280;16801;53.562;10.038;2022-10-03T12:12:42;102326.53;;;22.94;50.67
29941;BME280;16801;53.562;10.038;2022-10-03T12:16:11;102341.13;;;20.21;59.56
29941;BME280;16801;53.562;10.038;2022-10-03T12:19:44;102337.13;;;18.94;64.73
29941;BME280;16801;53.562;10.038;2022-10-03T12:23:20;102327.19;;;18.75;66.20
29941;BME280;16801;53.562;10.038;2022-10-03T12:26:52;102327.50;;;17.99;68.82
29941;BME280;16801;53.562;10.038;2022-10-03T12:30:17;102329.53;;;17.97;69.47
29941;BME280;16801;53.562;10.038;2022-10-03T12:33:48;102329.59;;;17.68;70.75
29941;BME280;16801;53.562;10.038;2022-10-03T12:37:23;102330.66;;;17.94;70.27
29941;BME280;16801;53.562;10.038;2022-10-03T12:40:55;102333.81;;;18.46;68.78
29941;BME280;16801;53.562;10.038;2022-10-03T12:44:28;102333.72;;;18.65;67.57
29941;BME280;16801;53.562;10.038;2022-10-03T12:48:12;102329.03;;;18.92;66.88
29941;BME280;16801;53.562;10.038;2022-10-03T12:51:46;102331.69;;;18.30;68.38
29941;BME280;16801;53.562;10.038;2022-10-03T12:55:22;102328.63;;;18.06;69.24
29941;BME280;16801;53.562;10.038;2022-10-03T12:58:53;102338.47;;;18.26;68.91
29941;BME280;16801;53.562;10.038;2022-10-03T13:02:22;102330.94;;;18.01;68.85
29941;BME280;16801;53.562;10.038;2022-10-03T13:06:24;102339.44;;;17.88;69.52
29941;BME280;16801;53.562;10.038;2022-10-03T13:10:08;102330.44;;;17.78;71.02
29941;BME280;16801;53.562;10.038;2022-10-03T13:13:41;102332.75;;;17.44;71.39
29941;BME280;16801;53.562;10.038;2022-10-03T13:17:17;102335.66;;;17.33;72.42
29941;BME280;16801;53.562;10.038;2022-10-03T13:20:50;102333.94;;;17.23;72.02
29941;BME280;16801;53.562;10.038;2022-10-03T13:24:25;102332.34;;;17.39;70.71
29941;BME280;16801;53.562;10.038;2022-10-03T13:27:56;102324.16;;;17.68;69.42
29941;BME280;16801;53.562;10.038;2022-10-03T13:31:24;102326.63;;;17.52;69.30
29941;BME280;16801;53.562;10.038;2022-10-03T13:35:01;102326.88;;;17.39;70.51
29941;BME280;16801;53.562;10.038;2022-10-03T13:39:03;102327.47;;;17.52;70.35
29941;BME280;16801;53.562;10.038;2022-10-03T13:42:36;102322.00;;;17.33;70.63
29941;BME280;16801;53.562;10.038;2022-10-03T13:45:59;102334.34;;;17.28;70.62
29941;BME280;16801;53.562;10.038;2022-10-03T13:49:25;102321.28;;;17.31;70.40
29941;BME280;16801;53.562;10.038;2022-10-03T13:52:54;102317.09;;;17.46;70.51
29941;BME280;16801;53.562;10.038;2022-10-03T13:56:28;102335.91;;;17.30;70.38
29941;BME280;16801;53.562;10.038;2022-10-03T14:00:03;102322.56;;;17.37;71.20
29941;BME280;16801;53.562;10.038;2022-10-03T14:03:39;102311.72;;;19.80;62.35
29941;BME280;16801;53.562;10.038;2022-10-03T14:07:14;102311.25;;;18.44;66.72
29941;BME280;16801;53.562;10.038;2022-10-03T14:14:46;102300.03;;;17.64;68.41
29941;BME280;16801;53.562;10.038;2022-10-03T14:18:20;102308.50;;;17.32;69.41
29941;BME280;16801;53.562;10.038;2022-10-03T14:21:56;102309.09;;;17.07;70.35
29941;BME280;16801;53.562;10.038;2022-10-03T14:25:27;102310.25;;;17.04;70.77
29941;BME280;16801;53.562;10.038;2022-10-03T14:28:54;102310.34;;;16.84;71.56
29941;BME280;16801;53.562;10.038;2022-10-03T14:32:22;102317.34;;;16.57;71.89
29941;BME280;16801;53.562;10.038;2022-10-03T14:36:03;102328.66;;;16.53;72.82
29941;BME280;16801;53.562;10.038;2022-10-03T14:39:34;102316.63;;;16.55;73.34
29941;BME280;16801;53.562;10.038;2022-10-03T14:43:18;102310.63;;;16.71;72.80
29941;BME280;16801;53.562;10.038;2022-10-03T14:46:48;102305.94;;;17.02;71.81
29941;BME280;16801;53.562;10.038;2022-10-03T14:50:15;102304.19;;;18.68;66.28
29941;BME280;16801;53.562;10.038;2022-10-03T14:53:45;102305.91;;;17.40;70.21
29941;BME280;16801;53.562;10.038;2022-10-03T14:57:17;102313.94;;;16.84;72.85
29941;BME280;16801;53.562;10.038;2022-10-03T15:00:42;102324.94;;;16.63;74.58
29941;BME280;16801;53.562;10.038;2022-10-03T15:04:06;102317.84;;;16.91;74.10
29941;BME280;16801;53.562;10.038;2022-10-03T15:07:32;102315.38;;;16.88;74.33
29941;BME280;16801;53.562;10.038;2022-10-03T15:10:55;102312.09;;;16.75;75.25
29941;BME280;16801;53.562;10.038;2022-10-03T15:14:17;102309.94;;;16.78;75.27
29941;BME280;16801;53.562;10.038;2022-10-03T15:17:43;102315.03;;;16.53;76.30
29941;BME280;16801;53.562;10.038;2022-10-03T15:21:11;102304.91;;;16.64;75.88
29941;BME280;16801;53.562;10.038;2022-10-03T15:24:34;102298.91;;;16.70;75.31
29941;BME280;16801;53.562;10.038;2022-10-03T15:27:58;102308.19;;;16.68;75.04
29941;BME280;16801;53.562;10.038;2022-10-03T15:31:31;102298.75;;;16.62;74.72
29941;BME280;16801;53.562;10.038;2022-10-03T15:34:56;102301.28;;;16.54;74.86
29941;BME280;16801;53.562;10.038;2022-10-03T15:38:21;102295.09;;;16.52;74.67
29941;BME280;16801;53.562;10.038;2022-10-03T15:41:50;102296.66;;;16.45;74.53
29941;BME280;16801;53.562;10.038;2022-10-03T15:45:18;102292.19;;;16.35;74.61
29941;BME280;16801;53.562;10.038;2022-10-03T15:48:41;102288.59;;;16.34;74.22
29941;BME280;16801;53.562;10.038;2022-10-03T15:52:11;102297.72;;;16.24;74.28
29941;BME280;16801;53.562;10.038;2022-10-03T15:55:35;102287.25;;;16.19;74.78
29941;BME280;16801;53.562;10.038;2022-10-03T15:59:04;102289.38;;;16.16;74.79
29941;BME280;16801;53.562;10.038;2022-10-03T16:02:31;102289.13;;;16.19;74.72
29941;BME280;16801;53.562;10.038;2022-10-03T16:06:02;102285.63;;;16.07;74.93
29941;BME280;16801;53.562;10.038;2022-10-03T16:09:29;102287.47;;;16.07;75.29
29941;BME280;16801;53.562;10.038;2022-10-03T16:12:56;102278.44;;;15.96;75.64
29941;BME280;16801;53.562;10.038;2022-10-03T16:16:21;102279.84;;;15.91;76.44
29941;BME280;16801;53.562;10.038;2022-10-03T16:19:50;102281.25;;;15.65;76.93
29941;BME280;16801;53.562;10.038;2022-10-03T16:23:16;102280.13;;;15.67;77.47
29941;BME280;16801;53.562;10.038;2022-10-03T16:26:47;102282.13;;;15.65;77.87
29941;BME280;16801;53.562;10.038;2022-10-03T16:30:16;102299.13;;;15.58;77.90
29941;BME280;16801;53.562;10.038;2022-10-03T16:33:42;102293.59;;;15.48;78.63
29941;BME280;16801;53.562;10.038;2022-10-03T16:37:15;102289.69;;;15.41;78.63
29941;BME280;16801;53.562;10.038;2022-10-03T16:40:37;102286.34;;;15.38;79.04
29941;BME280;16801;53.562;10.038;2022-10-03T16:44:00;102282.56;;;15.29;80.00
29941;BME280;16801;53.562;10.038;2022-10-03T16:47:32;102289.94;;;15.17;80.45
29941;BME280;16801;53.562;10.038;2022-10-03T16:50:55;102285.47;;;15.16;80.46
29941;BME280;16801;53.562;10.038;2022-10-03T16:54:18;102283.44;;;15.09;81.02
29941;BME280;16801;53.562;10.038;2022-10-03T16:57:42;102287.16;;;15.08;81.23
29941;BME280;16801;53.562;10.038;2022-10-03T17:01:06;102274.69;;;15.05;81.50
29941;BME280;16801;53.562;10.038;2022-10-03T17:04:31;102279.25;;;15.05;82.13
29941;BME280;16801;53.562;10.038;2022-10-03T17:07:58;102279.78;;;14.99;81.96
29941;BME280;16801;53.562;10.038;2022-10-03T17:11:23;102282.88;;;14.94;82.52
29941;BME280;16801;53.562;10.038;2022-10-03T17:14:46;102279.81;;;14.88;83.06
29941;BME280;16801;53.562;10.038;2022-10-03T17:18:17;102280.94;;;14.85;83.09
29941;BME280;16801;53.562;10.038;2022-10-03T17:21:43;102283.53;;;14.87;82.93
29941;BME280;16801;53.562;10.038;2022-10-03T17:25:31;102292.78;;;14.84;83.77
29941;BME280;16801;53.562;10.038;2022-10-03T17:29:02;102296.03;;;14.78;83.73
29941;BME280;16801;53.562;10.038;2022-10-03T17:32:27;102295.31;;;14.76;83.67
29941;BME280;16801;53.562;10.038;2022-10-03T17:35:59;102295.16;;;14.78;83.57
29941;BME280;16801;53.562;10.038;2022-10-03T17:39:36;102291.94;;;14.73;83.78
29941;BME280;16801;53.562;10.038;2022-10-03T17:43:01;102301.34;;;14.69;83.83
29941;BME280;16801;53.562;10.038;2022-10-03T17:46:33;102299.78;;;14.66;83.75
29941;BME280;16801;53.562;10.038;2022-10-03T17:49:59;102298.16;;;14.64;83.62
29941;BME280;16801;53.562;10.038;2022-10-03T17:53:27;102298.31;;;14.62;83.51
29941;BME280;16801;53.562;10.038;2022-10-03T17:56:52;102290.03;;;14.53;84.07
29941;BME280;16801;53.562;10.038;2022-10-03T18:00:18;102300.03;;;14.52;84.18
29941;BME280;16801;53.562;10.038;2022-10-03T18:03:46;102302.28;;;14.47;84.31
29941;BME280;16801;53.562;10.038;2022-10-03T18:07:11;102288.94;;;14.44;84.38
29941;BME280;16801;53.562;10.038;2022-10-03T18:10:37;102298.34;;;14.40;84.82
29941;BME280;16801;53.562;10.038;2022-10-03T18:14:10;102302.16;;;14.37;84.69
29941;BME280;16801;53.562;10.038;2022-10-03T18:17:46;102303.66;;;14.30;84.89
29941;BME280;16801;53.562;10.038;2022-10-03T18:21:15;102297.88;;;14.35;84.92
29941;BME280;16801;53.562;10.038;2022-10-03T18:24:53;102307.13;;;14.32;85.08
29941;BME280;16801;53.562;10.038;2022-10-03T18:28:18;102300.09;;;14.30;85.02
29941;BME280;16801;53.562;10.038;2022-10-03T18:31:46;102298.72;;;14.24;85.49
29941;BME280;16801;53.562;10.038;2022-10-03T18:35:12;102303.63;;;14.19;85.77
29941;BME280;16801;53.562;10.038;2022-10-03T18:38:38;102298.72;;;14.24;85.16
29941;BME280;16801;53.562;10.038;2022-10-03T18:42:01;102297.59;;;14.16;86.05
29941;BME280;16801;53.562;10.038;2022-10-03T18:45:29;102299.06;;;14.09;86.43
29941;BME280;16801;53.562;10.038;2022-10-03T18:48:56;102309.19;;;14.07;86.37
29941;BME280;16801;53.562;10.038;2022-10-03T18:52:20;102304.38;;;14.10;86.35
29941;BME280;16801;53.562;10.038;2022-10-03T18:55:46;102303.38;;;14.00;86.59
29941;BME280;16801;53.562;10.038;2022-10-03T18:59:17;102317.22;;;13.97;86.93
29941;BME280;16801;53.562;10.038;2022-10-03T19:02:46;102308.06;;;13.98;87.08
29941;BME280;16801;53.562;10.038;2022-10-03T19:06:15;102303.88;;;13.94;86.98
29941;BME280;16801;53.562;10.038;2022-10-03T19:09:53;102302.91;;;13.95;86.95
29941;BME280;16801;53.562;10.038;2022-10-03T19:13:27;102294.41;;;13.89;87.30
29941;BME280;16801;53.562;10.038;2022-10-03T19:17:10;102304.25;;;13.90;87.38
29941;BME280;16801;53.562;10.038;2022-10-03T19:20:38;102305.25;;;13.89;87.48
29941;BME280;16801;53.562;10.038;2022-10-03T19:24:04;102305.47;;;13.86;87.47
29941;BME280;16801;53.562;10.038;2022-10-03T19:27:41;102303.78;;;13.85;87.57
29941;BME280;16801;53.562;10.038;2022-10-03T19:31:16;102307.31;;;13.85;87.89
29941;BME280;16801;53.562;10.038;2022-10-03T19:34:39;102303.50;;;13.88;87.53
29941;BME280;16801;53.562;10.038;2022-10-03T19:38:05;102302.16;;;13.82;88.03
29941;BME280;16801;53.562;10.038;2022-10-03T19:41:37;102303.13;;;13.81;87.84
29941;BME280;16801;53.562;10.038;2022-10-03T19:45:04;102305.09;;;13.79;87.96
29941;BME280;16801;53.562;10.038;2022-10-03T19:48:32;102305.09;;;13.79;88.09
29941;BME280;16801;53.562;10.038;2022-10-03T19:52:09;102314.59;;;13.74;88.02
29941;BME280;16801;53.562;10.038;2022-10-03T19:55:32;102317.53;;;13.59;88.94
29941;BME280;16801;53.562;10.038;2022-10-03T19:58:59;102316.53;;;13.60;89.00
29941;BME280;16801;53.562;10.038;2022-10-03T20:02:22;102327.50;;;13.59;89.22
29941;BME280;16801;53.562;10.038;2022-10-03T20:05:53;102317.19;;;13.64;89.09
29941;BME280;16801;53.562;10.038;2022-10-03T20:09:20;102313.72;;;13.62;89.03
29941;BME280;16801;53.562;10.038;2022-10-03T20:12:48;102310.50;;;13.57;89.29
29941;BME280;16801;53.562;10.038;2022-10-03T20:16:13;102312.94;;;13.49;89.92
29941;BME280;16801;53.562;10.038;2022-10-03T20:19:42;102300.03;;;13.52;89.56
29941;BME280;16801;53.562;10.038;2022-10-03T20:23:14;102307.28;;;13.52;89.74
29941;BME280;16801;53.562;10.038;2022-10-03T20:26:43;102299.06;;;13.53;89.52
29941;BME280;16801;53.562;10.038;2022-10-03T20:30:25;102296.19;;;13.44;89.92
29941;BME280;16801;53.562;10.038;2022-10-03T20:33:46;102299.41;;;13.49;89.47